createdAt,value
2023-12-28T00:02:17.059Z,5.20
2023-12-28T00:05:40.085Z,5.50
2023-12-28T00:09:08.378Z,5.70
2023-12-28T00:12:33.499Z,5.80
2023-12-28T00:15:55.207Z,5.90
2023-12-28T00:19:16.910Z,6.00
2023-12-28T00:22:39.952Z,6.30
2023-12-28T00:26:01.590Z,6.80
2023-12-28T00:29:23.221Z,7.00
2023-12-28T00:32:45.028Z,7.10
2023-12-28T00:36:06.835Z,7.10
2023-12-28T00:39:29.796Z,7.00
2023-12-28T00:42:51.544Z,6.80
2023-12-28T00:46:13.394Z,6.20
2023-12-28T00:49:35.134Z,5.40
2023-12-28T00:52:56.798Z,4.70
2023-12-28T00:56:19.707Z,4.20
2023-12-28T00:59:41.305Z,3.90
2023-12-28T01:03:03.008Z,3.60
2023-12-28T01:06:24.706Z,3.50
2023-12-28T01:09:46.375Z,3.40
2023-12-28T01:13:09.507Z,3.80
2023-12-28T01:16:31.141Z,4.00
2023-12-28T01:19:52.865Z,4.30
2023-12-28T01:23:14.587Z,4.40
2023-12-28T01:26:36.264Z,4.10
2023-12-28T01:29:59.194Z,3.70
2023-12-28T01:33:21.023Z,3.30
2023-12-28T01:36:42.787Z,3.10
2023-12-28T01:40:05.031Z,2.90
2023-12-28T01:43:26.662Z,2.80
2023-12-28T01:46:49.690Z,2.70
2023-12-28T01:50:11.328Z,2.60
2023-12-28T01:53:33.007Z,2.50
2023-12-28T01:56:54.801Z,2.50
2023-12-28T02:00:16.792Z,2.30
2023-12-28T02:03:40.028Z,2.20
2023-12-28T02:07:01.915Z,2.10
2023-12-28T02:10:23.559Z,2.00
2023-12-28T02:13:45.323Z,1.90
2023-12-28T02:17:11.353Z,1.80
2023-12-28T02:20:35.659Z,1.70
2023-12-28T02:23:57.338Z,1.80
2023-12-28T02:27:20.386Z,1.70
2023-12-28T02:30:42.137Z,1.70
2023-12-28T02:34:06.037Z,1.80
2023-12-28T02:37:29.387Z,1.90
2023-12-28T02:40:51.443Z,2.60
2023-12-28T02:44:14.692Z,3.80
2023-12-28T02:47:36.326Z,4.60
2023-12-28T02:50:57.978Z,5.10
2023-12-28T02:54:19.704Z,5.60
2023-12-28T02:57:41.398Z,5.90
2023-12-28T03:01:04.622Z,6.10
2023-12-28T03:04:26.285Z,6.70
2023-12-28T03:07:47.880Z,6.90
2023-12-28T03:11:09.501Z,7.10
2023-12-28T03:14:31.117Z,7.20
2023-12-28T03:17:54.172Z,7.20
2023-12-28T03:21:15.935Z,7.20
2023-12-28T03:24:37.754Z,7.10
2023-12-28T03:27:59.685Z,7.20
2023-12-28T03:31:21.639Z,7.30
2023-12-28T03:34:44.725Z,7.40
2023-12-28T03:38:06.356Z,7.40
2023-12-28T03:41:27.967Z,7.50
2023-12-28T03:44:49.584Z,7.30
2023-12-28T03:48:11.289Z,7.30
2023-12-28T03:51:34.404Z,7.30
2023-12-28T03:54:56.115Z,7.20
2023-12-28T03:58:17.771Z,7.40
2023-12-28T04:01:39.433Z,7.50
2023-12-28T04:05:01.126Z,7.50
2023-12-28T04:08:24.107Z,7.60
2023-12-28T04:11:45.777Z,7.60
2023-12-28T04:15:07.522Z,7.70
2023-12-28T04:18:29.501Z,7.90
2023-12-28T04:21:51.354Z,8.00
2023-12-28T04:25:14.410Z,8.00
2023-12-28T04:28:36.047Z,8.10
2023-12-28T04:31:57.688Z,8.20
2023-12-28T04:35:19.308Z,8.10
2023-12-28T04:38:40.934Z,8.10
2023-12-28T04:42:04.349Z,8.10
2023-12-28T04:45:26.004Z,8.10
2023-12-28T04:48:47.901Z,8.20
2023-12-28T04:52:09.647Z,8.30
2023-12-28T04:55:31.278Z,8.40
2023-12-28T04:58:54.225Z,8.50
2023-12-28T05:02:15.864Z,8.60
2023-12-28T05:05:37.548Z,8.80
2023-12-28T05:08:59.196Z,8.80
2023-12-28T05:12:22.417Z,8.80
2023-12-28T05:15:45.533Z,8.80
2023-12-28T05:19:07.293Z,8.80
2023-12-28T05:22:28.928Z,8.70
2023-12-28T05:25:50.570Z,8.70
2023-12-28T05:29:12.231Z,8.70
2023-12-28T05:32:35.282Z,8.60
2023-12-28T05:35:56.935Z,8.50
2023-12-28T05:39:18.581Z,8.40
2023-12-28T05:42:40.251Z,8.30
2023-12-28T05:46:01.965Z,8.30
2023-12-28T05:49:25.040Z,8.40
2023-12-28T05:52:46.947Z,8.60
2023-12-28T05:56:09.427Z,8.60
2023-12-28T05:59:31.165Z,8.50
2023-12-28T06:02:52.917Z,8.50
2023-12-28T06:06:15.995Z,8.50
2023-12-28T06:09:37.871Z,8.60
2023-12-28T06:12:59.566Z,8.70
2023-12-28T06:16:21.250Z,8.80
2023-12-28T06:19:43.107Z,9.00
2023-12-28T06:23:07.411Z,9.00
2023-12-28T06:26:29.341Z,9.10
2023-12-28T06:29:51.001Z,9.00
2023-12-28T06:33:12.724Z,9.10
2023-12-28T06:36:34.659Z,9.10
2023-12-28T06:39:57.660Z,9.00
2023-12-28T06:43:19.391Z,9.00
2023-12-28T06:46:40.997Z,8.90
2023-12-28T06:50:02.790Z,8.70
2023-12-28T06:53:24.589Z,8.40
2023-12-28T06:56:47.563Z,8.20
2023-12-28T07:00:09.845Z,8.20
2023-12-28T07:03:31.658Z,8.10
2023-12-28T07:06:53.432Z,8.20
2023-12-28T07:10:15.204Z,8.20
2023-12-28T07:13:38.193Z,8.30
2023-12-28T07:17:00.200Z,8.30
2023-12-28T07:20:22.113Z,8.40
2023-12-28T07:23:43.851Z,8.50
2023-12-28T07:27:05.575Z,8.60
2023-12-28T07:30:28.689Z,8.60
2023-12-28T07:33:50.549Z,8.70
2023-12-28T07:37:12.397Z,8.70
2023-12-28T07:40:34.031Z,8.70
2023-12-28T07:43:55.660Z,8.70
2023-12-28T07:47:19.338Z,8.60
2023-12-28T07:50:42.072Z,8.70
2023-12-28T07:54:03.729Z,8.60
2023-12-28T07:57:25.609Z,8.60
2023-12-28T08:00:47.329Z,8.60
2023-12-28T08:04:10.344Z,8.50
2023-12-28T08:07:32.037Z,8.60
2023-12-28T08:10:53.684Z,8.60
2023-12-28T08:14:15.304Z,8.50
2023-12-28T08:17:36.939Z,8.50
2023-12-28T08:21:00.076Z,8.50
2023-12-28T08:24:22.105Z,8.50
2023-12-28T08:27:43.792Z,8.40
2023-12-28T08:31:05.588Z,8.40
2023-12-28T08:34:27.599Z,8.40
2023-12-28T08:37:50.748Z,8.40
2023-12-28T08:41:18.912Z,8.40
2023-12-28T08:44:40.647Z,8.40
2023-12-28T08:48:02.675Z,8.50
2023-12-28T08:51:24.581Z,8.50
2023-12-28T08:54:47.631Z,8.60
2023-12-28T08:58:09.451Z,8.60
2023-12-28T09:01:31.284Z,8.70
2023-12-28T09:04:52.981Z,8.70
2023-12-28T09:08:14.594Z,8.70
2023-12-28T09:11:37.731Z,8.90
2023-12-28T09:14:59.342Z,9.00
2023-12-28T09:18:21.127Z,9.10
2023-12-28T09:21:42.838Z,9.20
2023-12-28T09:25:05.337Z,9.30
2023-12-28T09:28:28.364Z,9.30
2023-12-28T09:31:50.086Z,9.30
2023-12-28T09:35:11.954Z,9.30
2023-12-28T09:38:33.588Z,9.20
2023-12-28T09:41:56.353Z,9.20
2023-12-28T09:45:19.393Z,9.20
2023-12-28T09:48:41.473Z,9.40
2023-12-28T09:52:03.355Z,9.70
2023-12-28T09:55:25.078Z,10.00
2023-12-28T09:58:47.762Z,10.20
2023-12-28T10:02:10.860Z,10.40
2023-12-28T10:05:32.587Z,10.50
2023-12-28T10:08:54.220Z,10.80
2023-12-28T10:12:16.024Z,11.00
2023-12-28T10:15:37.879Z,11.20
2023-12-28T10:19:00.961Z,11.30
2023-12-28T10:22:22.612Z,11.30
2023-12-28T10:25:44.279Z,11.40
2023-12-28T10:29:05.918Z,11.50
2023-12-28T10:32:28.193Z,11.60
2023-12-28T10:35:52.010Z,11.70
2023-12-28T10:39:17.487Z,11.80
2023-12-28T10:42:45.026Z,11.90
2023-12-28T10:46:06.923Z,11.90
2023-12-28T10:49:31.234Z,11.90
2023-12-28T10:52:57.800Z,11.90
2023-12-28T10:56:26.057Z,11.90
2023-12-28T10:59:57.993Z,11.90
2023-12-28T11:03:22.861Z,11.90
2023-12-28T11:06:45.345Z,12.10
2023-12-28T11:10:09.169Z,12.10
2023-12-28T11:13:31.030Z,12.10
2023-12-28T11:16:52.978Z,12.00
2023-12-28T11:20:14.776Z,11.80
2023-12-28T11:23:36.490Z,11.70
2023-12-28T11:26:59.549Z,11.70
2023-12-28T11:30:21.251Z,11.90
2023-12-28T11:33:46.306Z,12.30
2023-12-28T11:37:08.706Z,12.60
2023-12-28T11:40:30.403Z,12.60
2023-12-28T11:43:56.189Z,12.30
2023-12-28T11:47:21.665Z,12.20
2023-12-28T11:50:43.308Z,12.00
2023-12-28T11:54:04.966Z,11.90
2023-12-28T11:57:27.040Z,11.70
2023-12-28T12:00:50.122Z,11.40
2023-12-28T12:04:12.129Z,11.20
2023-12-28T12:07:33.866Z,11.10
2023-12-28T12:11:01.636Z,11.00
2023-12-28T12:14:24.390Z,11.10
2023-12-28T12:17:47.475Z,11.30
2023-12-28T12:21:09.111Z,11.30
2023-12-28T12:24:32.244Z,11.20
2023-12-28T12:27:54.218Z,11.20
2023-12-28T12:31:16.030Z,11.10
2023-12-28T12:34:39.320Z,11.00
2023-12-28T12:38:01.010Z,10.90
2023-12-28T12:41:22.687Z,10.90
2023-12-28T12:44:44.349Z,10.90
2023-12-28T12:48:06.671Z,10.90
2023-12-28T12:51:30.009Z,10.90
2023-12-28T12:54:55.250Z,10.80
2023-12-28T12:58:19.508Z,10.80
2023-12-28T13:01:41.272Z,10.70
2023-12-28T13:05:03.177Z,10.70
2023-12-28T13:08:26.225Z,10.70
2023-12-28T13:11:47.873Z,10.60
2023-12-28T13:15:09.943Z,10.60
2023-12-28T13:18:31.783Z,10.50
2023-12-28T13:21:53.517Z,10.40
2023-12-28T13:25:16.505Z,10.30
2023-12-28T13:28:38.160Z,10.30
2023-12-28T13:31:59.770Z,10.30
2023-12-28T13:35:21.519Z,10.40
2023-12-28T13:38:43.153Z,10.40
2023-12-28T13:42:06.559Z,10.40
2023-12-28T13:45:28.233Z,10.30
2023-12-28T13:48:50.091Z,10.20
2023-12-28T13:52:11.807Z,10.10
2023-12-28T13:55:33.532Z,10.00
2023-12-28T13:58:56.523Z,9.90
2023-12-28T14:02:18.146Z,9.90
2023-12-28T14:05:40.033Z,9.80
2023-12-28T14:09:01.746Z,9.80
2023-12-28T14:12:24.291Z,9.80
2023-12-28T14:15:47.287Z,9.80
2023-12-28T14:19:08.991Z,9.80
2023-12-28T14:22:30.951Z,9.60
2023-12-28T14:25:52.963Z,9.60
2023-12-28T14:29:14.903Z,9.50
2023-12-28T14:32:38.762Z,9.50
2023-12-28T14:36:01.394Z,9.40
2023-12-28T14:39:23.705Z,9.30
2023-12-28T14:42:45.370Z,9.30
2023-12-28T14:46:07.127Z,9.20
2023-12-28T14:49:30.269Z,9.10
2023-12-28T14:52:51.928Z,9.00
2023-12-28T14:56:13.634Z,9.00
2023-12-28T14:59:35.272Z,9.10
2023-12-28T15:02:56.950Z,9.00
2023-12-28T15:06:20.035Z,9.00
2023-12-28T15:09:41.755Z,9.00
2023-12-28T15:13:03.786Z,9.00
2023-12-28T15:16:25.636Z,9.00
2023-12-28T15:19:47.606Z,9.00
2023-12-28T15:23:11.195Z,9.00
2023-12-28T15:26:32.824Z,9.00
2023-12-28T15:29:54.451Z,8.90
2023-12-28T15:33:16.209Z,8.90
2023-12-28T15:36:37.979Z,8.80
2023-12-28T15:40:01.060Z,8.80
2023-12-28T15:43:22.765Z,8.70
2023-12-28T15:46:44.435Z,8.70
2023-12-28T15:50:06.453Z,8.70
2023-12-28T15:53:28.187Z,8.70
2023-12-28T15:56:51.158Z,8.70
2023-12-28T16:00:13.686Z,8.70
2023-12-28T16:03:35.566Z,8.70
2023-12-28T16:06:57.251Z,8.80
2023-12-28T16:10:18.941Z,8.80
2023-12-28T16:13:42.242Z,8.80
2023-12-28T16:17:04.189Z,8.80
2023-12-28T16:20:26.399Z,8.80
2023-12-28T16:23:48.296Z,8.80
2023-12-28T16:27:10.967Z,8.80
2023-12-28T16:30:34.071Z,8.80
2023-12-28T16:33:55.882Z,8.60
2023-12-28T16:37:17.560Z,8.50
2023-12-28T16:40:39.194Z,8.50
2023-12-28T16:44:00.875Z,8.50
2023-12-28T16:47:23.889Z,8.50
2023-12-28T16:50:45.641Z,8.50
2023-12-28T16:54:07.292Z,8.50
2023-12-28T16:57:28.937Z,8.50
2023-12-28T17:00:50.733Z,8.50
2023-12-28T17:04:13.906Z,8.60
2023-12-28T17:07:35.742Z,8.50
2023-12-28T17:10:57.706Z,8.50
2023-12-28T17:14:19.616Z,8.50
2023-12-28T17:17:42.311Z,8.50
2023-12-28T17:21:07.637Z,8.50
2023-12-28T17:24:31.325Z,8.50
2023-12-28T17:27:53.829Z,8.50
2023-12-28T17:31:18.407Z,8.50
2023-12-28T17:34:40.741Z,8.50
2023-12-28T17:38:04.278Z,8.40
2023-12-28T17:41:29.964Z,8.50
2023-12-28T17:44:55.221Z,8.50
2023-12-28T17:48:20.616Z,8.40
2023-12-28T17:51:42.691Z,8.40
2023-12-28T17:55:06.172Z,8.40
2023-12-28T17:58:27.928Z,8.40
2023-12-28T18:01:49.692Z,8.40
2023-12-28T18:05:11.500Z,8.50
2023-12-28T18:08:33.167Z,8.40
2023-12-28T18:11:56.235Z,8.50
2023-12-28T18:15:17.902Z,8.40
2023-12-28T18:18:39.672Z,8.40
2023-12-28T18:22:01.591Z,8.30
2023-12-28T18:25:23.342Z,8.30
2023-12-28T18:28:46.312Z,8.20
2023-12-28T18:32:07.963Z,8.20
2023-12-28T18:35:29.585Z,8.20
2023-12-28T18:38:51.219Z,8.30
2023-12-28T18:42:12.848Z,8.30
2023-12-28T18:45:35.878Z,8.40
2023-12-28T18:48:57.584Z,8.50
2023-12-28T18:52:19.244Z,8.50
2023-12-28T18:55:41.379Z,8.60
2023-12-28T18:59:02.979Z,8.60
2023-12-28T19:02:25.963Z,8.70
2023-12-28T19:05:47.649Z,8.70
2023-12-28T19:09:09.278Z,8.80
2023-12-28T19:12:30.902Z,8.80
2023-12-28T19:15:52.591Z,8.90
2023-12-28T19:19:15.709Z,8.90
2023-12-28T19:22:37.589Z,8.90
2023-12-28T19:25:59.195Z,8.90
2023-12-28T19:29:20.804Z,8.90
2023-12-28T19:32:42.514Z,8.90
2023-12-28T19:36:05.942Z,8.90
2023-12-28T19:39:27.560Z,8.90
2023-12-28T19:42:49.266Z,8.90
2023-12-28T19:46:10.924Z,8.90
2023-12-28T19:49:32.644Z,9.00
2023-12-28T19:52:55.651Z,9.00
2023-12-28T19:56:17.298Z,9.00
2023-12-28T19:59:38.924Z,9.00
2023-12-28T20:03:00.783Z,9.00
2023-12-28T20:06:22.929Z,8.90
2023-12-28T20:09:45.953Z,8.90
2023-12-28T20:13:07.680Z,9.00
2023-12-28T20:16:29.419Z,9.00
2023-12-28T20:19:51.204Z,9.00
2023-12-28T20:23:12.889Z,9.00
2023-12-28T20:26:39.019Z,9.00
2023-12-28T20:30:00.647Z,9.00
2023-12-28T20:33:22.277Z,8.90
2023-12-28T20:36:43.948Z,8.90
2023-12-28T20:40:06.292Z,8.90
2023-12-28T20:43:29.313Z,8.80
2023-12-28T20:46:50.927Z,8.80
2023-12-28T20:50:12.647Z,8.80
2023-12-28T20:53:34.304Z,8.80
2023-12-28T20:56:55.933Z,8.80
2023-12-28T21:00:19.335Z,8.90
2023-12-28T21:03:41.073Z,8.90
2023-12-28T21:07:02.777Z,8.80
2023-12-28T21:10:24.393Z,8.80
2023-12-28T21:13:46.029Z,8.80
2023-12-28T21:17:10.773Z,8.80
2023-12-28T21:20:32.488Z,8.70
2023-12-28T21:23:54.176Z,8.60
2023-12-28T21:27:15.841Z,8.50
2023-12-28T21:30:37.554Z,8.40
2023-12-28T21:34:00.723Z,8.30
2023-12-28T21:37:22.615Z,8.30
2023-12-28T21:40:44.244Z,8.20
2023-12-28T21:44:05.877Z,8.10
2023-12-28T21:47:27.611Z,8.10
2023-12-28T21:50:50.639Z,8.10
2023-12-28T21:54:12.292Z,8.00
2023-12-28T21:57:33.944Z,7.90
2023-12-28T22:00:55.710Z,7.90
2023-12-28T22:04:17.514Z,7.90
2023-12-28T22:07:40.545Z,7.80
2023-12-28T22:11:02.210Z,7.80
2023-12-28T22:14:24.094Z,7.80
2023-12-28T22:17:45.774Z,8.00
2023-12-28T22:21:07.401Z,8.10
2023-12-28T22:24:30.365Z,8.20
2023-12-28T22:27:52.029Z,8.30
2023-12-28T22:31:13.897Z,8.40
2023-12-28T22:34:35.720Z,8.50
2023-12-28T22:37:57.742Z,8.50
2023-12-28T22:41:20.832Z,8.40
2023-12-28T22:44:42.439Z,8.20
2023-12-28T22:48:04.678Z,8.20
2023-12-28T22:51:26.688Z,8.20
2023-12-28T22:54:48.345Z,8.30
2023-12-28T22:58:11.434Z,8.40
2023-12-28T23:01:33.188Z,8.30
2023-12-28T23:04:56.296Z,8.20
2023-12-28T23:08:18.979Z,8.20
2023-12-28T23:11:40.606Z,8.10
2023-12-28T23:15:03.888Z,8.20
2023-12-28T23:18:26.024Z,8.30
2023-12-28T23:21:47.797Z,8.50
2023-12-28T23:25:09.543Z,8.50
2023-12-28T23:28:31.203Z,8.50
2023-12-28T23:31:54.666Z,8.60
2023-12-28T23:35:16.417Z,8.60
2023-12-28T23:38:38.153Z,8.60
2023-12-28T23:41:59.828Z,8.60
2023-12-28T23:45:21.429Z,8.60
2023-12-28T23:48:44.506Z,8.60
2023-12-28T23:52:06.447Z,8.60
2023-12-28T23:55:28.127Z,8.60
2023-12-28T23:58:50.278Z,8.60
